Time;durP1;ratioP1;P1;durP2;ratioP2;P2;SDS_P1;SDS_P2;PMS_P1;PMS_P2;Temp;Humidity;BMP_temperature;BMP_pressure;BME280_temperature;BME280_humidity;BME280_pressure;Samples;Min_cycle;Max_cycle;Signal;HPM_P1;HPM_P2
2023/08/25 00:00:39;;;;;;;129.38;122.63;;;24.80;99.90;;;;;;5011410;28;20033;-81
2023/08/25 00:03:05;;;;;;;135.52;128.13;;;24.70;99.90;;;;;;5012177;28;20045;-80
2023/08/25 00:05:37;;;;;;;138.15;130.98;;;24.70;99.90;;;;;;5012321;28;20052;-80
2023/08/25 00:08:04;;;;;;;158.05;149.65;;;24.70;99.90;;;;;;5012171;28;20069;-80
2023/08/25 00:10:30;;;;;;;134.27;127.15;;;24.60;99.90;;;;;;5012158;28;20037;-81
2023/08/25 00:12:56;;;;;;;131.50;124.72;;;24.60;99.90;;;;;;5012624;28;20025;-81
2023/08/25 00:15:22;;;;;;;180.43;171.05;;;24.60;99.90;;;;;;5011354;28;20034;-80
2023/08/25 00:17:49;;;;;;;159.82;151.30;;;24.60;99.90;;;;;;5016097;28;20052;-81
2023/08/25 00:20:16;;;;;;;165.07;155.93;;;24.60;99.90;;;;;;5015845;28;20022;-81
2023/08/25 00:22:42;;;;;;;155.55;146.98;;;24.60;99.90;;;;;;5016690;28;20418;-81
2023/08/25 00:25:08;;;;;;;128.57;120.93;;;24.50;99.90;;;;;;5015933;28;20496;-80
2023/08/25 00:27:35;;;;;;;130.50;123.35;;;24.50;99.90;;;;;;5015315;28;20469;-80
2023/08/25 00:30:01;;;;;;;122.88;116.10;;;24.40;99.90;;;;;;5015879;28;20480;-80
2023/08/25 00:32:27;;;;;;;100.10;94.45;;;24.40;99.90;;;;;;5014962;28;20110;-80
2023/08/25 00:34:53;;;;;;;100.55;94.72;;;24.30;99.90;;;;;;5015758;28;20065;-81
2023/08/25 00:37:19;;;;;;;110.63;104.40;;;24.30;99.90;;;;;;5015526;28;20042;-80
2023/08/25 00:39:45;;;;;;;111.88;105.30;;;24.00;99.90;;;;;;5015612;28;20026;-80
2023/08/25 00:42:12;;;;;;;86.30;80.80;;;23.80;99.90;;;;;;5015591;28;20030;-80
2023/08/25 00:44:38;;;;;;;88.80;83.35;;;23.70;99.90;;;;;;5015829;28;20066;-80
2023/08/25 00:47:04;;;;;;;84.93;79.55;;;23.70;99.90;;;;;;5014901;28;20399;-80
2023/08/25 00:49:31;;;;;;;82.35;77.10;;;23.70;99.90;;;;;;5014063;28;20502;-80
2023/08/25 00:51:57;;;;;;;80.13;74.75;;;23.70;99.90;;;;;;5015414;28;20041;-81
2023/08/25 00:54:27;;;;;;;86.55;81.22;;;23.50;99.90;;;;;;5014183;28;20037;-80
2023/08/25 00:56:53;;;;;;;86.40;80.63;;;23.50;99.90;;;;;;5013623;28;20490;-80
2023/08/25 00:59:19;;;;;;;94.07;88.60;;;23.40;99.90;;;;;;5014540;28;20034;-80
2023/08/25 01:01:46;;;;;;;107.45;101.25;;;23.40;99.90;;;;;;5014570;28;20034;-80
2023/08/25 01:04:13;;;;;;;124.20;117.30;;;23.40;99.90;;;;;;5015364;28;20360;-81
2023/08/25 01:06:39;;;;;;;137.77;129.88;;;23.40;99.90;;;;;;5013839;28;20038;-80
2023/08/25 01:09:06;;;;;;;123.88;116.47;;;23.50;99.90;;;;;;5015186;28;20033;-80
2023/08/25 01:11:36;;;;;;;141.70;133.82;;;23.40;99.90;;;;;;5013257;28;20049;-80
2023/08/25 01:14:29;;;;;;;121.88;114.47;;;23.40;99.90;;;;;;5013883;28;20037;-81
2023/08/25 01:17:13;;;;;;;142.05;134.00;;;23.30;99.90;;;;;;5014231;28;20049;-79
2023/08/25 01:19:54;;;;;;;124.35;117.18;;;23.10;99.90;;;;;;5013883;28;20029;-79
2023/08/25 01:22:35;;;;;;;111.18;104.53;;;23.00;99.90;;;;;;5014519;28;20029;-79
2023/08/25 01:25:22;;;;;;;115.15;107.90;;;22.90;99.90;;;;;;5013826;28;20049;-80
2023/08/25 01:27:49;;;;;;;119.85;112.85;;;22.90;99.90;;;;;;5014286;28;20038;-80
2023/08/25 01:30:15;;;;;;;104.95;98.47;;;22.90;99.90;;;;;;5014185;28;20042;-79
2023/08/25 01:32:41;;;;;;;83.22;77.72;;;22.70;99.90;;;;;;5013420;28;20026;-80
2023/08/25 01:35:08;;;;;;;84.03;78.38;;;22.60;99.90;;;;;;5014567;28;20033;-80
2023/08/25 01:37:38;;;;;;;82.85;77.35;;;22.60;99.90;;;;;;5013176;28;20042;-80
2023/08/25 01:40:07;;;;;;;86.63;80.80;;;22.60;99.90;;;;;;4997320;28;20030;-80
2023/08/25 01:42:34;;;;;;;84.30;78.68;;;22.60;99.90;;;;;;5014028;28;20296;-80
2023/08/25 01:45:00;;;;;;;88.28;82.55;;;22.40;99.90;;;;;;5013338;28;20021;-80
2023/08/25 01:47:28;;;;;;;84.13;78.63;;;22.50;99.90;;;;;;5012906;28;20038;-79
2023/08/25 01:49:54;;;;;;;85.15;79.80;;;22.70;99.90;;;;;;5013130;28;20120;-80
2023/08/25 01:52:21;;;;;;;78.25;73.07;;;22.60;99.90;;;;;;5012781;28;20038;-79
2023/08/25 01:54:49;;;;;;;82.32;76.60;;;22.40;99.90;;;;;;5012915;28;20026;-80
2023/08/25 01:57:16;;;;;;;96.75;90.57;;;22.40;99.90;;;;;;5012112;28;20056;-80
2023/08/25 01:59:42;;;;;;;81.28;75.68;;;22.40;99.90;;;;;;5011186;28;20034;-80
2023/08/25 02:02:08;;;;;;;86.00;80.00;;;22.40;99.90;;;;;;5007257;28;20510;-80
2023/08/25 02:04:34;;;;;;;84.60;78.20;;;22.40;99.90;;;;;;5012698;28;20034;-80
2023/08/25 02:07:00;;;;;;;84.90;78.28;;;22.30;99.90;;;;;;5012335;28;20070;-80
2023/08/25 02:09:26;;;;;;;81.43;75.22;;;22.30;99.90;;;;;;5011694;28;20037;-80
2023/08/25 02:11:53;;;;;;;86.82;80.43;;;22.20;99.90;;;;;;5012401;28;20037;-80
2023/08/25 02:14:19;;;;;;;81.93;75.45;;;22.20;99.90;;;;;;5012777;28;20030;-79
2023/08/25 02:16:45;;;;;;;115.95;107.35;;;22.10;99.90;;;;;;5011933;28;20038;-80
2023/08/25 02:19:11;;;;;;;86.47;79.85;;;22.20;99.90;;;;;;5012554;28;20038;-80
2023/08/25 02:21:37;;;;;;;97.43;89.93;;;22.10;99.90;;;;;;5012349;28;20045;-80
2023/08/25 02:24:03;;;;;;;97.63;90.28;;;22.20;99.90;;;;;;5012212;28;20463;-79
2023/08/25 02:26:29;;;;;;;84.43;77.68;;;22.20;99.90;;;;;;5012382;28;20050;-80
2023/08/25 02:28:55;;;;;;;83.68;76.93;;;22.10;99.90;;;;;;5012527;28;20025;-80
2023/08/25 02:31:21;;;;;;;90.45;82.65;;;22.10;99.90;;;;;;5011753;28;20041;-79
2023/08/25 02:33:48;;;;;;;84.07;77.43;;;22.10;99.90;;;;;;5012485;28;20038;-79
2023/08/25 02:36:14;;;;;;;92.38;85.25;;;22.20;99.90;;;;;;5012185;28;20097;-79
2023/08/25 02:38:40;;;;;;;77.38;71.32;;;22.30;99.90;;;;;;5012592;28;20042;-80
2023/08/25 02:41:06;;;;;;;78.03;71.43;;;22.30;99.90;;;;;;5013156;28;20061;-80
2023/08/25 02:43:33;;;;;;;97.47;90.22;;;22.30;99.90;;;;;;5013448;28;20030;-79
2023/08/25 02:45:59;;;;;;;82.30;75.88;;;22.20;99.90;;;;;;5013067;28;20033;-80
2023/08/25 02:48:26;;;;;;;79.70;73.57;;;22.10;99.90;;;;;;5013625;28;20395;-80
2023/08/25 02:50:52;;;;;;;86.22;79.78;;;22.20;99.90;;;;;;5013282;28;20037;-80
2023/08/25 02:53:18;;;;;;;82.90;77.03;;;22.30;99.90;;;;;;5012775;28;20042;-80
2023/08/25 02:55:46;;;;;;;86.20;79.93;;;22.30;99.90;;;;;;5012859;28;20032;-80
2023/08/25 02:58:12;;;;;;;72.10;66.90;;;22.30;99.90;;;;;;5013191;28;20052;-79
2023/08/25 03:00:38;;;;;;;81.45;75.32;;;22.40;99.90;;;;;;5012534;28;20034;-80
2023/08/25 03:03:04;;;;;;;70.18;64.90;;;22.40;99.90;;;;;;5013086;28;20037;-80
2023/08/25 03:05:30;;;;;;;73.82;68.00;;;22.40;99.90;;;;;;5012969;28;20037;-79
2023/08/25 03:07:56;;;;;;;71.85;66.57;;;22.40;99.90;;;;;;5012587;28;20042;-80
2023/08/25 03:10:22;;;;;;;74.95;69.35;;;22.40;99.90;;;;;;5012563;28;20036;-80
2023/08/25 03:12:49;;;;;;;77.50;71.60;;;22.40;99.90;;;;;;5013139;28;20025;-80
2023/08/25 03:15:15;;;;;;;78.43;72.57;;;22.40;99.90;;;;;;5012234;28;20026;-80
2023/08/25 03:17:41;;;;;;;75.47;69.35;;;22.30;99.90;;;;;;5013041;28;20050;-79
2023/08/25 03:20:07;;;;;;;79.25;73.32;;;22.30;99.90;;;;;;5012933;28;20026;-80
2023/08/25 03:22:33;;;;;;;71.45;66.43;;;22.30;99.90;;;;;;5012344;28;20518;-80
2023/08/25 03:25:00;;;;;;;83.15;77.43;;;22.30;99.90;;;;;;5012761;28;20022;-80
2023/08/25 03:27:26;;;;;;;82.82;76.82;;;22.40;99.90;;;;;;5012688;28;20475;-80
2023/08/25 03:29:52;;;;;;;60.70;56.00;;;22.40;99.90;;;;;;5012926;28;20053;-80
2023/08/25 03:32:18;;;;;;;61.72;56.97;;;22.40;99.90;;;;;;5011832;28;20049;-79
2023/08/25 03:34:44;;;;;;;60.65;56.17;;;22.50;99.90;;;;;;5012775;28;20037;-80
2023/08/25 03:37:11;;;;;;;61.85;57.03;;;22.50;99.90;;;;;;5012104;28;20034;-80
2023/08/25 03:39:37;;;;;;;63.13;58.65;;;22.50;99.90;;;;;;5013338;28;20494;-80
2023/08/25 03:42:03;;;;;;;64.20;59.15;;;22.60;99.90;;;;;;5012511;28;20037;-80
2023/08/25 03:44:30;;;;;;;64.30;59.22;;;22.50;99.90;;;;;;5012621;28;20045;-80
2023/08/25 03:46:56;;;;;;;58.97;54.47;;;22.40;99.90;;;;;;5012160;28;20038;-80
2023/08/25 03:49:27;;;;;;;67.72;62.65;;;22.50;99.90;;;;;;5013018;28;20038;-79
2023/08/25 03:51:54;;;;;;;70.47;65.47;;;22.50;99.90;;;;;;5016150;28;20053;-80
2023/08/25 03:54:20;;;;;;;66.68;61.78;;;22.60;99.90;;;;;;5015438;28;20041;-79
2023/08/25 03:56:46;;;;;;;62.47;58.22;;;22.40;99.90;;;;;;5016323;28;20030;-80
2023/08/25 03:59:12;;;;;;;63.13;58.85;;;22.50;99.90;;;;;;5016376;28;20042;-80
2023/08/25 04:01:38;;;;;;;58.40;54.38;;;22.50;99.90;;;;;;5015865;28;20045;-80
2023/08/25 04:04:04;;;;;;;59.63;55.10;;;22.40;99.90;;;;;;5016382;28;20030;-80
2023/08/25 04:06:30;;;;;;;55.53;51.13;;;22.30;99.90;;;;;;5015606;28;20049;-79
2023/08/25 04:08:58;;;;;;;53.97;50.00;;;22.30;99.90;;;;;;5016481;28;20038;-80
2023/08/25 04:11:24;;;;;;;51.20;47.50;;;22.30;99.90;;;;;;5016137;28;20049;-80
2023/08/25 04:13:50;;;;;;;53.50;50.00;;;22.30;99.90;;;;;;5015207;28;20044;-80
2023/08/25 04:16:17;;;;;;;48.53;45.03;;;22.30;99.90;;;;;;5015511;28;20045;-79
2023/08/25 04:18:43;;;;;;;52.10;48.10;;;22.40;99.90;;;;;;5016711;28;20068;-79
2023/08/25 04:21:09;;;;;;;48.42;44.38;;;22.40;99.90;;;;;;5015606;28;20034;-79
2023/08/25 04:23:36;;;;;;;53.97;49.97;;;22.40;99.90;;;;;;5016101;28;20037;-79
2023/08/25 04:26:02;;;;;;;46.40;43.20;;;22.30;99.90;;;;;;5015903;28;20502;-80
2023/08/25 04:28:28;;;;;;;46.60;43.22;;;22.20;99.90;;;;;;5016374;28;20042;-79
2023/08/25 04:30:55;;;;;;;44.60;41.85;;;22.20;99.90;;;;;;5015212;28;20387;-79
2023/08/25 04:33:21;;;;;;;45.08;42.08;;;22.10;99.90;;;;;;5016098;28;20049;-79
2023/08/25 04:35:47;;;;;;;40.05;37.22;;;22.10;99.90;;;;;;5015128;28;20022;-79
2023/08/25 04:38:13;;;;;;;39.13;36.53;;;22.00;99.90;;;;;;5014652;28;20041;-77
2023/08/25 04:40:39;;;;;;;37.50;34.92;;;22.00;99.90;;;;;;5015517;28;20026;-79
2023/08/25 04:43:05;;;;;;;36.08;33.28;;;22.00;99.90;;;;;;5015612;28;20030;-79
2023/08/25 04:45:32;;;;;;;35.78;33.30;;;22.00;99.90;;;;;;5013321;28;20022;-79
2023/08/25 04:47:58;;;;;;;37.13;34.63;;;22.00;99.90;;;;;;5016205;28;20042;-79
2023/08/25 04:50:24;;;;;;;36.17;33.80;;;22.00;99.90;;;;;;5015162;28;20044;-79
2023/08/25 04:52:50;;;;;;;33.67;31.10;;;21.90;99.90;;;;;;5015608;28;20054;-79
2023/08/25 04:55:17;;;;;;;36.10;33.85;;;21.80;99.90;;;;;;5015815;28;20038;-80
2023/08/25 04:57:43;;;;;;;35.38;33.03;;;21.90;99.90;;;;;;5015531;28;20523;-79
2023/08/25 05:00:10;;;;;;;37.60;35.20;;;21.90;99.90;;;;;;5015145;28;20049;-79
2023/08/25 05:02:36;;;;;;;36.70;34.42;;;21.90;99.90;;;;;;5014616;28;20042;-79
2023/08/25 05:05:05;;;;;;;40.15;37.72;;;21.90;99.90;;;;;;5014985;28;20033;-78
2023/08/25 05:07:31;;;;;;;37.42;35.03;;;21.80;99.90;;;;;;5015739;28;20048;-79
2023/08/25 05:09:57;;;;;;;38.08;35.47;;;21.80;99.90;;;;;;5015237;28;20034;-80
2023/08/25 05:12:23;;;;;;;35.92;33.20;;;21.60;99.90;;;;;;5015095;28;20036;-80
2023/08/25 05:14:49;;;;;;;32.85;30.58;;;21.50;99.90;;;;;;5015121;28;20037;-78
2023/08/25 05:17:15;;;;;;;38.65;35.92;;;21.60;99.90;;;;;;5013444;28;20372;-79
2023/08/25 05:19:41;;;;;;;30.60;28.45;;;21.60;99.90;;;;;;5014583;28;20395;-79
2023/08/25 05:22:07;;;;;;;31.40;29.42;;;21.50;99.90;;;;;;5015249;28;20026;-80
2023/08/25 05:24:44;;;;;;;31.23;29.15;;;21.60;99.90;;;;;;5015141;28;20419;-79
2023/08/25 05:27:11;;;;;;;35.42;33.08;;;21.60;99.90;;;;;;5014989;28;20041;-79
2023/08/25 05:29:37;;;;;;;32.58;30.70;;;21.70;99.90;;;;;;5013798;28;20025;-79
2023/08/25 05:32:03;;;;;;;34.88;32.47;;;21.60;99.90;;;;;;5014200;28;20045;-79
2023/08/25 05:34:31;;;;;;;32.38;30.15;;;21.60;99.90;;;;;;5014414;28;20030;-79
2023/08/25 05:36:57;;;;;;;36.20;34.03;;;21.60;99.90;;;;;;5014967;28;20487;-79
2023/08/25 05:39:23;;;;;;;36.78;34.15;;;21.60;99.90;;;;;;5014951;28;20050;-79
2023/08/25 05:41:50;;;;;;;34.60;32.38;;;21.60;99.90;;;;;;5014610;28;20033;-80
2023/08/25 05:44:16;;;;;;;35.97;33.58;;;21.60;99.90;;;;;;5014473;28;20038;-79
2023/08/25 05:46:43;;;;;;;34.38;32.08;;;21.60;99.90;;;;;;5014101;28;20030;-80
2023/08/25 05:49:09;;;;;;;34.05;31.83;;;21.50;99.90;;;;;;5013046;28;20372;-79
2023/08/25 05:51:35;;;;;;;33.13;31.00;;;21.30;99.90;;;;;;5014136;28;20037;-79
2023/08/25 05:54:01;;;;;;;36.08;33.72;;;21.30;99.90;;;;;;5014573;28;20360;-80
2023/08/25 05:56:28;;;;;;;32.85;30.75;;;21.30;99.90;;;;;;5014376;28;20089;-79
2023/08/25 05:58:54;;;;;;;36.45;34.22;;;21.30;99.90;;;;;;5013104;28;20049;-79
2023/08/25 06:01:20;;;;;;;35.22;33.33;;;21.40;99.90;;;;;;5013503;28;20030;-80
2023/08/25 06:03:46;;;;;;;35.97;33.63;;;21.50;99.90;;;;;;5014030;28;20032;-79
2023/08/25 06:06:12;;;;;;;37.90;35.63;;;21.40;99.90;;;;;;5014394;28;20030;-78
2023/08/25 06:08:38;;;;;;;39.47;36.83;;;21.50;99.90;;;;;;5014293;28;20048;-79
2023/08/25 06:11:04;;;;;;;38.58;36.33;;;21.60;99.90;;;;;;5013909;28;20064;-80
2023/08/25 06:13:31;;;;;;;34.78;32.38;;;21.50;99.90;;;;;;5013306;28;20038;-78
2023/08/25 06:15:57;;;;;;;36.08;33.92;;;21.20;99.90;;;;;;5013355;28;20387;-79
2023/08/25 06:18:23;;;;;;;36.75;34.47;;;21.20;99.90;;;;;;5012767;28;20037;-79
2023/08/25 06:20:50;;;;;;;38.88;36.05;;;21.30;99.90;;;;;;5014112;28;20363;-79
2023/08/25 06:23:16;;;;;;;35.35;33.20;;;21.50;99.90;;;;;;5013768;28;20046;-79
2023/08/25 06:25:43;;;;;;;36.25;33.85;;;21.50;99.90;;;;;;5013843;28;20026;-79
2023/08/25 06:28:10;;;;;;;36.55;34.00;;;21.60;99.90;;;;;;5013788;28;20415;-78
2023/08/25 06:30:36;;;;;;;36.63;34.10;;;21.60;99.90;;;;;;5011605;28;20037;-79
2023/08/25 06:33:02;;;;;;;38.75;35.70;;;21.60;99.90;;;;;;5013571;28;20034;-79
2023/08/25 06:35:29;;;;;;;38.58;35.78;;;21.60;99.90;;;;;;5013658;28;20390;-79
2023/08/25 06:37:55;;;;;;;37.25;34.65;;;21.70;99.90;;;;;;5013501;28;20041;-79
2023/08/25 06:40:21;;;;;;;38.38;35.78;;;21.60;99.90;;;;;;5013666;28;20383;-79
2023/08/25 06:42:47;;;;;;;39.38;36.65;;;21.60;99.90;;;;;;5013599;28;20026;-80
2023/08/25 06:45:14;;;;;;;40.28;37.85;;;21.60;99.90;;;;;;5012486;28;20038;-79
2023/08/25 06:47:40;;;;;;;36.85;34.33;;;21.60;99.90;;;;;;5013415;28;20482;-79
2023/08/25 06:50:06;;;;;;;40.70;37.50;;;21.60;99.90;;;;;;5013358;28;20037;-80
2023/08/25 06:52:33;;;;;;;41.05;38.28;;;21.50;99.90;;;;;;5013444;28;20049;-79
2023/08/25 06:54:59;;;;;;;38.38;35.75;;;21.50;99.90;;;;;;5013507;28;20038;-80
2023/08/25 06:57:25;;;;;;;37.42;34.83;;;21.60;99.90;;;;;;5013555;28;20367;-80
2023/08/25 06:59:51;;;;;;;38.47;35.55;;;21.60;99.90;;;;;;5012808;28;20046;-80
2023/08/25 07:02:17;;;;;;;43.30;40.03;;;21.70;99.90;;;;;;5012554;28;20030;-80
2023/08/25 07:04:43;;;;;;;38.22;35.38;;;21.70;99.90;;;;;;5013240;28;20041;-80
2023/08/25 07:07:09;;;;;;;40.20;37.05;;;21.80;99.90;;;;;;5013249;28;20026;-80
2023/08/25 07:09:36;;;;;;;36.42;33.60;;;21.70;99.90;;;;;;5013339;28;20376;-79
2023/08/25 07:12:04;;;;;;;39.67;37.03;;;21.70;99.90;;;;;;5012951;28;20382;-80
2023/08/25 07:14:31;;;;;;;39.70;36.45;;;21.70;99.90;;;;;;5012580;28;20037;-80
2023/08/25 07:16:58;;;;;;;39.85;36.58;;;21.70;99.90;;;;;;5012511;28;20033;-80
2023/08/25 07:19:24;;;;;;;38.33;35.20;;;21.70;99.90;;;;;;5012952;28;20041;-80
2023/08/25 07:21:50;;;;;;;40.15;36.90;;;21.70;99.90;;;;;;5012542;28;20394;-80
2023/08/25 07:24:16;;;;;;;40.30;37.20;;;21.70;99.90;;;;;;5012893;28;20046;-79
2023/08/25 07:26:42;;;;;;;38.90;35.75;;;21.80;99.90;;;;;;5012709;28;20030;-80
2023/08/25 07:29:08;;;;;;;40.63;37.08;;;21.80;99.90;;;;;;5012486;28;20037;-79
2023/08/25 07:31:34;;;;;;;38.15;34.70;;;21.70;99.90;;;;;;5011774;28;20399;-80
2023/08/25 07:34:01;;;;;;;40.38;37.47;;;21.50;99.90;;;;;;5013103;28;20038;-80
2023/08/25 07:36:27;;;;;;;40.97;37.70;;;21.30;99.90;;;;;;5012347;28;20041;-79
2023/08/25 07:38:54;;;;;;;36.63;33.20;;;21.40;99.90;;;;;;5012789;28;20040;-79
2023/08/25 07:41:21;;;;;;;38.15;34.70;;;21.40;99.90;;;;;;5012577;28;20053;-80
2023/08/25 07:43:48;;;;;;;38.58;35.53;;;21.30;99.90;;;;;;5012708;28;20034;-81
2023/08/25 07:46:14;;;;;;;35.50;31.95;;;21.40;99.90;;;;;;5011837;28;20038;-79
2023/08/25 07:48:41;;;;;;;38.10;35.08;;;21.50;99.90;;;;;;5012703;28;20380;-79
2023/08/25 07:51:07;;;;;;;34.85;32.25;;;21.40;99.90;;;;;;5012163;28;20030;-79
2023/08/25 07:53:33;;;;;;;34.72;31.85;;;21.50;99.90;;;;;;5011313;28;20072;-79
2023/08/25 07:55:59;;;;;;;35.25;32.72;;;21.50;99.90;;;;;;5012098;28;20034;-80
2023/08/25 07:58:26;;;;;;;35.65;32.70;;;21.50;99.90;;;;;;5012080;28;20038;-80
2023/08/25 08:00:53;;;;;;;34.55;31.52;;;21.40;99.90;;;;;;5011637;28;20034;-79
2023/08/25 08:03:19;;;;;;;35.28;32.53;;;21.40;99.90;;;;;;5012823;28;20391;-80
2023/08/25 08:05:45;;;;;;;36.38;33.35;;;21.50;99.90;;;;;;5012043;28;20034;-80
2023/08/25 08:08:11;;;;;;;36.22;33.50;;;21.50;99.90;;;;;;5012506;28;20459;-79
2023/08/25 08:10:38;;;;;;;44.22;41.13;;;21.60;99.90;;;;;;5012004;28;20029;-80
2023/08/25 08:13:04;;;;;;;44.15;40.85;;;21.70;99.90;;;;;;5010809;28;20030;-80
2023/08/25 08:15:30;;;;;;;49.08;45.50;;;21.80;99.90;;;;;;5011964;28;20065;-79
2023/08/25 08:17:58;;;;;;;46.35;42.78;;;21.70;99.90;;;;;;5012431;28;20030;-79
2023/08/25 08:20:24;;;;;;;54.58;50.78;;;21.80;99.90;;;;;;5011893;28;20057;-79
2023/08/25 08:22:51;;;;;;;59.33;55.58;;;21.80;99.90;;;;;;5012140;28;20045;-79
2023/08/25 08:25:17;;;;;;;54.63;50.72;;;21.80;99.90;;;;;;5010563;28;20064;-80
2023/08/25 08:27:43;;;;;;;55.40;51.90;;;21.80;99.90;;;;;;5011631;28;20030;-79
2023/08/25 08:30:10;;;;;;;52.63;49.08;;;21.90;99.90;;;;;;5012038;28;20041;-79
2023/08/25 08:32:36;;;;;;;57.25;53.55;;;21.90;99.90;;;;;;5011996;28;20475;-79
2023/08/25 08:35:09;;;;;;;52.13;48.42;;;21.90;99.90;;;;;;5011980;28;20049;-79
2023/08/25 08:37:39;;;;;;;47.85;44.42;;;21.70;99.90;;;;;;5013899;28;20030;-80
2023/08/25 08:40:06;;;;;;;49.38;45.65;;;21.80;99.90;;;;;;5015827;28;20049;-80
2023/08/25 08:42:39;;;;;;;45.35;42.10;;;21.80;99.90;;;;;;5013957;28;20045;-80
2023/08/25 08:45:07;;;;;;;48.85;45.13;;;21.90;99.90;;;;;;5015243;28;20486;-79
2023/08/25 08:47:34;;;;;;;47.80;44.78;;;22.00;99.90;;;;;;5015237;28;20030;-79
2023/08/25 08:50:01;;;;;;;58.30;54.80;;;22.00;99.90;;;;;;5016012;28;20048;-79
2023/08/25 08:52:28;;;;;;;48.00;44.67;;;22.10;99.90;;;;;;5015077;28;20042;-79
2023/08/25 08:54:57;;;;;;;57.53;53.85;;;22.20;99.90;;;;;;5015841;28;20038;-80
2023/08/25 08:57:27;;;;;;;59.83;56.25;;;22.10;99.90;;;;;;5013707;28;20042;-80
2023/08/25 08:59:53;;;;;;;62.33;58.77;;;22.20;99.90;;;;;;5014350;28;20046;-80
2023/08/25 09:02:20;;;;;;;62.88;58.70;;;22.20;99.90;;;;;;5014469;28;20045;-79
2023/08/25 09:04:49;;;;;;;59.05;55.33;;;22.30;99.90;;;;;;5015260;28;20053;-80
2023/08/25 09:07:17;;;;;;;59.47;56.05;;;22.30;99.90;;;;;;5013838;28;20030;-79
2023/08/25 09:09:45;;;;;;;49.92;47.03;;;22.30;99.90;;;;;;5013866;28;20030;-74
2023/08/25 09:12:15;;;;;;;34.90;32.22;;;22.30;99.90;;;;;;5014832;28;20041;-79
2023/08/25 09:14:42;;;;;;;35.50;33.00;;;22.30;99.90;;;;;;5015525;28;20042;-80
2023/08/25 09:17:08;;;;;;;38.67;35.95;;;22.30;99.90;;;;;;5012684;28;20038;-79
2023/08/25 09:19:34;;;;;;;36.47;33.75;;;22.40;99.90;;;;;;5013861;28;20069;-79
2023/08/25 09:22:02;;;;;;;38.75;36.08;;;22.60;99.90;;;;;;5014858;28;20029;-80
2023/08/25 09:24:30;;;;;;;39.13;36.55;;;22.70;99.90;;;;;;5015019;28;20481;-80
2023/08/25 09:26:56;;;;;;;42.35;39.25;;;22.80;99.90;;;;;;5014786;28;20045;-80
2023/08/25 09:29:27;;;;;;;42.45;39.97;;;22.80;99.90;;;;;;5015321;28;20042;-80
2023/08/25 09:31:53;;;;;;;41.92;39.15;;;22.90;99.90;;;;;;5014389;28;20038;-79
2023/08/25 09:34:19;;;;;;;47.42;44.47;;;23.00;99.90;;;;;;5014757;28;20386;-79
2023/08/25 09:36:52;;;;;;;52.72;49.60;;;23.20;99.90;;;;;;5014422;28;20091;-80
2023/08/25 09:39:18;;;;;;;47.45;44.67;;;23.40;99.90;;;;;;5012570;28;20497;-80
2023/08/25 09:41:46;;;;;;;59.70;56.38;;;23.60;99.90;;;;;;5012895;28;20045;-81
2023/08/25 09:44:12;;;;;;;48.10;45.40;;;23.80;99.90;;;;;;5014451;28;20044;-79
2023/08/25 09:46:38;;;;;;;51.08;48.15;;;24.10;99.90;;;;;;5013853;28;20056;-80
2023/08/25 09:49:06;;;;;;;55.92;52.55;;;24.30;99.90;;;;;;5013423;28;20033;-79
2023/08/25 09:51:36;;;;;;;61.85;58.25;;;24.50;99.90;;;;;;5013182;28;20030;-79
2023/08/25 09:54:15;;;;;;;65.03;61.30;;;24.60;99.90;;;;;;5014155;28;20052;-80
2023/08/25 09:56:50;;;;;;;56.00;52.65;;;24.60;99.90;;;;;;5014369;28;20498;-79
2023/08/25 09:59:16;;;;;;;58.60;55.25;;;24.40;99.90;;;;;;5014299;28;20053;-80
2023/08/25 10:01:44;;;;;;;60.58;57.22;;;24.30;99.90;;;;;;5013697;28;20033;-80
2023/08/25 10:04:10;;;;;;;55.25;51.60;;;24.30;99.90;;;;;;5014382;28;20034;-79
2023/08/25 10:06:38;;;;;;;47.67;44.30;;;24.10;99.90;;;;;;5013971;28;20030;-79
2023/08/25 10:09:04;;;;;;;48.95;46.03;;;23.90;99.90;;;;;;5012541;28;20030;-79
2023/08/25 10:11:34;;;;;;;48.83;45.90;;;23.80;99.90;;;;;;5013790;28;20513;-79
2023/08/25 10:14:02;;;;;;;50.73;47.50;;;23.80;99.90;;;;;;5014199;28;20057;-80
2023/08/25 10:16:29;;;;;;;53.72;50.15;;;23.80;99.90;;;;;;5013248;28;20403;-79
2023/08/25 10:18:57;;;;;;;47.63;44.83;;;23.80;99.90;;;;;;5012696;28;20037;-79
2023/08/25 10:21:23;;;;;;;48.25;45.45;;;23.80;99.90;;;;;;5012517;28;20048;-79
2023/08/25 10:23:50;;;;;;;44.45;41.80;;;23.90;99.90;;;;;;5012372;28;20041;-79
2023/08/25 10:26:16;;;;;;;45.33;42.65;;;24.00;99.90;;;;;;5012678;28;20483;-79
2023/08/25 10:28:44;;;;;;;47.70;44.72;;;24.00;99.90;;;;;;5013837;28;20045;-79
2023/08/25 10:31:10;;;;;;;48.97;45.97;;;23.90;99.90;;;;;;5011819;28;20045;-80
2023/08/25 10:33:46;;;;;;;47.25;44.45;;;23.90;99.90;;;;;;5013632;28;20053;-79
2023/08/25 10:36:20;;;;;;;45.25;42.63;;;23.80;99.90;;;;;;5012156;28;20026;-78
2023/08/25 10:39:06;;;;;;;47.05;44.35;;;23.80;99.90;;;;;;5013275;28;20057;-80
2023/08/25 10:41:41;;;;;;;47.60;44.65;;;23.80;99.90;;;;;;5012218;28;20034;-79
2023/08/25 10:44:09;;;;;;;48.65;45.88;;;23.70;99.90;;;;;;5012429;28;20033;-79
2023/08/25 10:46:35;;;;;;;43.15;40.35;;;23.70;99.90;;;;;;5012627;28;20057;-79
2023/08/25 10:49:03;;;;;;;38.58;36.42;;;23.60;99.90;;;;;;4996237;28;20042;-79
2023/08/25 10:51:29;;;;;;;47.28;44.30;;;23.60;99.90;;;;;;5012868;28;20041;-80
2023/08/25 10:53:55;;;;;;;39.13;36.72;;;23.60;99.90;;;;;;5012081;28;20050;-80
2023/08/25 10:56:22;;;;;;;41.13;38.38;;;23.60;99.90;;;;;;5013318;28;20503;-79
2023/08/25 10:59:04;;;;;;;45.17;42.40;;;23.60;99.90;;;;;;5011118;28;20054;-81
2023/08/25 11:01:37;;;;;;;47.53;44.88;;;23.70;99.90;;;;;;5012733;28;20038;-80
2023/08/25 11:04:07;;;;;;;44.42;41.78;;;23.70;99.90;;;;;;5011804;28;20033;-80
2023/08/25 11:06:46;;;;;;;44.83;42.22;;;23.70;99.90;;;;;;5012538;28;20049;-80
2023/08/25 11:09:18;;;;;;;46.28;43.58;;;23.70;99.90;;;;;;5012034;28;20045;-80
2023/08/25 11:11:45;;;;;;;46.58;43.67;;;23.70;99.90;;;;;;5012836;28;20030;-80
2023/08/25 11:14:11;;;;;;;46.78;43.67;;;23.80;99.90;;;;;;5013511;28;20038;-79
2023/08/25 11:16:39;;;;;;;43.28;40.58;;;23.80;99.90;;;;;;5010950;28;20526;-79
2023/08/25 11:19:13;;;;;;;42.22;39.22;;;23.70;99.90;;;;;;5011806;28;20033;-80
2023/08/25 11:21:39;;;;;;;42.05;39.67;;;23.60;99.90;;;;;;5011396;28;20030;-79
2023/08/25 11:24:06;;;;;;;47.83;44.60;;;23.60;99.90;;;;;;5011589;28;20116;-79
2023/08/25 11:26:35;;;;;;;47.33;44.55;;;23.60;99.90;;;;;;5012540;28;20052;-80
2023/08/25 11:29:02;;;;;;;41.92;39.40;;;23.60;99.90;;;;;;5013011;28;20467;-80
2023/08/25 11:31:28;;;;;;;42.67;40.28;;;23.40;99.90;;;;;;5012383;28;20046;-79
2023/08/25 11:33:55;;;;;;;44.83;42.22;;;23.40;99.90;;;;;;5012762;28;20029;-79
2023/08/25 11:36:24;;;;;;;46.63;43.92;;;23.40;99.90;;;;;;5011957;28;20064;-79
2023/08/25 11:38:51;;;;;;;48.53;45.45;;;23.30;99.90;;;;;;5012553;28;20383;-79
2023/08/25 11:41:18;;;;;;;44.65;41.85;;;23.50;99.90;;;;;;5012732;28;20057;-80
2023/08/25 11:43:47;;;;;;;44.28;41.45;;;23.40;99.90;;;;;;5012527;28;20018;-79
2023/08/25 11:46:16;;;;;;;45.22;42.75;;;23.50;99.90;;;;;;5011950;28;20041;-79
2023/08/25 11:48:42;;;;;;;43.53;41.05;;;23.50;99.90;;;;;;5012455;28;20030;-79
2023/08/25 11:51:14;;;;;;;45.97;43.17;;;23.40;99.90;;;;;;5011768;28;20053;-79
2023/08/25 11:53:42;;;;;;;43.22;40.47;;;23.50;99.90;;;;;;5012377;28;20041;-80
2023/08/25 11:56:12;;;;;;;45.90;43.15;;;23.50;99.90;;;;;;5011155;28;20036;-79
2023/08/25 11:58:38;;;;;;;43.42;40.90;;;23.40;99.90;;;;;;5011628;28;20029;-80
2023/08/25 12:01:09;;;;;;;46.35;43.75;;;23.40;99.90;;;;;;5011628;28;20046;-78
2023/08/25 12:03:38;;;;;;;44.53;41.92;;;23.40;99.90;;;;;;5012536;28;20029;-80
2023/08/25 12:06:05;;;;;;;43.45;41.00;;;23.40;99.90;;;;;;5010758;28;20034;-79
2023/08/25 12:08:32;;;;;;;40.53;38.05;;;23.40;99.90;;;;;;5011318;28;20026;-79
2023/08/25 12:10:59;;;;;;;41.72;39.38;;;23.40;99.90;;;;;;5013393;28;20042;-80
2023/08/25 12:13:32;;;;;;;40.83;38.45;;;23.50;99.90;;;;;;5016336;28;20033;-78
2023/08/25 12:15:58;;;;;;;36.30;34.05;;;23.60;99.90;;;;;;5014460;28;20042;-78
2023/08/25 12:18:37;;;;;;;35.95;33.72;;;23.70;99.90;;;;;;5014738;28;20037;-78
2023/08/25 12:21:07;;;;;;;42.17;39.75;;;23.60;99.90;;;;;;5015833;28;20475;-79
2023/08/25 12:23:38;;;;;;;37.30;35.15;;;23.60;99.90;;;;;;5016362;28;20030;-80
2023/08/25 12:26:13;;;;;;;42.50;40.00;;;23.60;99.90;;;;;;5015739;28;20064;-79